sensor_id;sensor_type;location;lat;lon;timestamp;P1;durP1;ratioP1;P2;durP2;ratioP2
9888;SDS011;4983;42.112;24.738;2024-03-22T00:02:16;13.20;;;8.77;;
9888;SDS011;4983;42.112;24.738;2024-03-22T00:04:41;16.00;;;10.05;;
9888;SDS011;4983;42.112;24.738;2024-03-22T00:07:06;16.60;;;9.68;;
9888;SDS011;4983;42.112;24.738;2024-03-22T00:09:32;18.65;;;10.80;;
9888;SDS011;4983;42.112;24.738;2024-03-22T00:11:58;17.75;;;11.85;;
9888;SDS011;4983;42.112;24.738;2024-03-22T00:14:24;12.80;;;8.85;;
9888;SDS011;4983;42.112;24.738;2024-03-22T00:16:50;14.75;;;9.15;;
9888;SDS011;4983;42.112;24.738;2024-03-22T00:19:15;13.70;;;9.73;;
9888;SDS011;4983;42.112;24.738;2024-03-22T00:21:41;16.05;;;10.15;;
9888;SDS011;4983;42.112;24.738;2024-03-22T00:24:06;15.68;;;9.70;;
9888;SDS011;4983;42.112;24.738;2024-03-22T00:26:32;16.70;;;9.55;;
9888;SDS011;4983;42.112;24.738;2024-03-22T00:28:58;15.50;;;10.43;;
9888;SDS011;4983;42.112;24.738;2024-03-22T00:31:23;17.48;;;10.15;;
9888;SDS011;4983;42.112;24.738;2024-03-22T00:33:49;16.50;;;10.00;;
9888;SDS011;4983;42.112;24.738;2024-03-22T00:36:14;14.07;;;10.38;;
9888;SDS011;4983;42.112;24.738;2024-03-22T00:38:40;15.45;;;10.65;;
9888;SDS011;4983;42.112;24.738;2024-03-22T00:41:05;13.57;;;10.23;;
9888;SDS011;4983;42.112;24.738;2024-03-22T00:43:31;21.17;;;10.80;;
9888;SDS011;4983;42.112;24.738;2024-03-22T00:45:57;14.50;;;10.23;;
9888;SDS011;4983;42.112;24.738;2024-03-22T00:48:23;14.75;;;8.85;;
9888;SDS011;4983;42.112;24.738;2024-03-22T00:50:49;15.73;;;9.60;;
9888;SDS011;4983;42.112;24.738;2024-03-22T00:53:14;15.52;;;9.52;;
9888;SDS011;4983;42.112;24.738;2024-03-22T00:55:40;15.82;;;8.60;;
9888;SDS011;4983;42.112;24.738;2024-03-22T00:58:05;13.10;;;7.57;;
9888;SDS011;4983;42.112;24.738;2024-03-22T01:00:31;15.07;;;9.70;;
9888;SDS011;4983;42.112;24.738;2024-03-22T01:02:57;16.60;;;9.35;;
9888;SDS011;4983;42.112;24.738;2024-03-22T01:05:22;15.57;;;9.15;;
9888;SDS011;4983;42.112;24.738;2024-03-22T01:07:47;15.75;;;10.55;;
9888;SDS011;4983;42.112;24.738;2024-03-22T01:10:13;17.80;;;10.90;;
9888;SDS011;4983;42.112;24.738;2024-03-22T01:12:39;14.60;;;10.30;;
9888;SDS011;4983;42.112;24.738;2024-03-22T01:15:07;16.45;;;10.43;;
9888;SDS011;4983;42.112;24.738;2024-03-22T01:17:34;16.27;;;10.15;;
9888;SDS011;4983;42.112;24.738;2024-03-22T01:19:59;12.68;;;7.90;;
9888;SDS011;4983;42.112;24.738;2024-03-22T01:22:25;17.00;;;11.10;;
9888;SDS011;4983;42.112;24.738;2024-03-22T01:24:50;14.48;;;9.88;;
9888;SDS011;4983;42.112;24.738;2024-03-22T01:27:16;16.05;;;10.70;;
9888;SDS011;4983;42.112;24.738;2024-03-22T01:29:41;19.02;;;11.30;;
9888;SDS011;4983;42.112;24.738;2024-03-22T01:32:07;16.30;;;10.93;;
9888;SDS011;4983;42.112;24.738;2024-03-22T01:34:32;15.27;;;9.50;;
9888;SDS011;4983;42.112;24.738;2024-03-22T01:36:59;17.30;;;10.55;;
9888;SDS011;4983;42.112;24.738;2024-03-22T01:39:25;17.33;;;11.57;;
9888;SDS011;4983;42.112;24.738;2024-03-22T01:41:50;15.32;;;10.02;;
9888;SDS011;4983;42.112;24.738;2024-03-22T01:44:16;17.23;;;11.63;;
9888;SDS011;4983;42.112;24.738;2024-03-22T01:46:43;15.82;;;10.02;;
9888;SDS011;4983;42.112;24.738;2024-03-22T01:49:10;14.43;;;9.90;;
9888;SDS011;4983;42.112;24.738;2024-03-22T01:51:40;16.45;;;10.80;;
9888;SDS011;4983;42.112;24.738;2024-03-22T01:54:06;14.23;;;10.05;;
9888;SDS011;4983;42.112;24.738;2024-03-22T01:56:35;14.55;;;10.57;;
9888;SDS011;4983;42.112;24.738;2024-03-22T01:59:02;16.35;;;9.75;;
9888;SDS011;4983;42.112;24.738;2024-03-22T02:01:29;14.90;;;10.20;;
9888;SDS011;4983;42.112;24.738;2024-03-22T02:03:55;16.63;;;9.80;;
9888;SDS011;4983;42.112;24.738;2024-03-22T02:06:20;15.98;;;10.35;;
9888;SDS011;4983;42.112;24.738;2024-03-22T02:08:45;14.38;;;10.02;;
9888;SDS011;4983;42.112;24.738;2024-03-22T02:11:11;13.88;;;9.27;;
9888;SDS011;4983;42.112;24.738;2024-03-22T02:13:36;13.85;;;9.05;;
9888;SDS011;4983;42.112;24.738;2024-03-22T02:16:05;14.25;;;8.57;;
9888;SDS011;4983;42.112;24.738;2024-03-22T02:18:31;16.90;;;10.25;;
9888;SDS011;4983;42.112;24.738;2024-03-22T02:20:56;14.95;;;9.35;;
9888;SDS011;4983;42.112;24.738;2024-03-22T02:23:28;18.00;;;10.75;;
9888;SDS011;4983;42.112;24.738;2024-03-22T02:25:57;18.40;;;9.68;;
9888;SDS011;4983;42.112;24.738;2024-03-22T02:28:23;16.77;;;10.65;;
9888;SDS011;4983;42.112;24.738;2024-03-22T02:30:48;13.43;;;9.30;;
9888;SDS011;4983;42.112;24.738;2024-03-22T02:33:14;16.23;;;9.85;;
9888;SDS011;4983;42.112;24.738;2024-03-22T02:35:39;13.82;;;9.50;;
9888;SDS011;4983;42.112;24.738;2024-03-22T02:38:05;15.13;;;10.20;;
9888;SDS011;4983;42.112;24.738;2024-03-22T02:40:30;14.32;;;9.98;;
9888;SDS011;4983;42.112;24.738;2024-03-22T02:42:55;15.38;;;9.80;;
9888;SDS011;4983;42.112;24.738;2024-03-22T02:45:21;16.45;;;10.23;;
9888;SDS011;4983;42.112;24.738;2024-03-22T02:47:46;17.48;;;10.55;;
9888;SDS011;4983;42.112;24.738;2024-03-22T02:50:12;19.45;;;11.25;;
9888;SDS011;4983;42.112;24.738;2024-03-22T02:52:37;14.93;;;10.38;;
9888;SDS011;4983;42.112;24.738;2024-03-22T02:55:03;18.92;;;11.25;;
9888;SDS011;4983;42.112;24.738;2024-03-22T02:57:29;14.45;;;9.98;;
9888;SDS011;4983;42.112;24.738;2024-03-22T02:59:54;16.02;;;10.10;;
9888;SDS011;4983;42.112;24.738;2024-03-22T03:02:19;18.98;;;11.15;;
9888;SDS011;4983;42.112;24.738;2024-03-22T03:04:45;18.75;;;10.80;;
9888;SDS011;4983;42.112;24.738;2024-03-22T03:07:10;18.98;;;11.10;;
9888;SDS011;4983;42.112;24.738;2024-03-22T03:09:36;17.42;;;11.30;;
9888;SDS011;4983;42.112;24.738;2024-03-22T03:12:01;15.90;;;11.60;;
9888;SDS011;4983;42.112;24.738;2024-03-22T03:14:27;21.08;;;11.75;;
9888;SDS011;4983;42.112;24.738;2024-03-22T03:16:52;19.23;;;12.90;;
9888;SDS011;4983;42.112;24.738;2024-03-22T03:19:17;19.52;;;11.50;;
9888;SDS011;4983;42.112;24.738;2024-03-22T03:21:43;19.55;;;12.18;;
9888;SDS011;4983;42.112;24.738;2024-03-22T03:24:08;18.52;;;10.95;;
9888;SDS011;4983;42.112;24.738;2024-03-22T03:26:34;18.67;;;12.25;;
9888;SDS011;4983;42.112;24.738;2024-03-22T03:29:00;18.50;;;10.65;;
9888;SDS011;4983;42.112;24.738;2024-03-22T03:31:25;16.55;;;11.00;;
9888;SDS011;4983;42.112;24.738;2024-03-22T03:33:51;15.00;;;11.15;;
9888;SDS011;4983;42.112;24.738;2024-03-22T03:36:16;17.88;;;10.57;;
9888;SDS011;4983;42.112;24.738;2024-03-22T03:38:41;15.88;;;9.68;;
9888;SDS011;4983;42.112;24.738;2024-03-22T03:41:07;16.50;;;10.38;;
9888;SDS011;4983;42.112;24.738;2024-03-22T03:43:32;17.17;;;10.68;;
9888;SDS011;4983;42.112;24.738;2024-03-22T03:45:58;15.95;;;9.10;;
9888;SDS011;4983;42.112;24.738;2024-03-22T03:48:23;18.02;;;10.38;;
9888;SDS011;4983;42.112;24.738;2024-03-22T03:50:52;15.98;;;9.20;;
9888;SDS011;4983;42.112;24.738;2024-03-22T03:53:19;17.25;;;10.35;;
9888;SDS011;4983;42.112;24.738;2024-03-22T03:55:45;20.85;;;9.50;;
9888;SDS011;4983;42.112;24.738;2024-03-22T03:58:11;18.50;;;10.65;;
9888;SDS011;4983;42.112;24.738;2024-03-22T04:00:37;17.35;;;10.45;;
9888;SDS011;4983;42.112;24.738;2024-03-22T04:03:02;17.75;;;11.70;;
9888;SDS011;4983;42.112;24.738;2024-03-22T04:05:28;16.67;;;10.93;;
9888;SDS011;4983;42.112;24.738;2024-03-22T04:07:53;18.30;;;11.55;;
9888;SDS011;4983;42.112;24.738;2024-03-22T04:10:19;22.60;;;12.05;;
9888;SDS011;4983;42.112;24.738;2024-03-22T04:12:44;26.27;;;12.35;;
9888;SDS011;4983;42.112;24.738;2024-03-22T04:15:10;17.77;;;11.73;;
9888;SDS011;4983;42.112;24.738;2024-03-22T04:17:35;20.95;;;11.73;;
9888;SDS011;4983;42.112;24.738;2024-03-22T04:20:01;20.25;;;11.55;;
9888;SDS011;4983;42.112;24.738;2024-03-22T04:22:29;18.90;;;11.93;;
9888;SDS011;4983;42.112;24.738;2024-03-22T04:24:54;18.95;;;12.27;;
9888;SDS011;4983;42.112;24.738;2024-03-22T04:27:20;17.67;;;11.98;;
9888;SDS011;4983;42.112;24.738;2024-03-22T04:29:48;18.65;;;11.68;;
9888;SDS011;4983;42.112;24.738;2024-03-22T04:32:14;21.58;;;13.23;;
9888;SDS011;4983;42.112;24.738;2024-03-22T04:34:42;20.42;;;12.57;;
9888;SDS011;4983;42.112;24.738;2024-03-22T04:37:08;27.98;;;12.57;;
9888;SDS011;4983;42.112;24.738;2024-03-22T04:39:34;26.55;;;14.23;;
9888;SDS011;4983;42.112;24.738;2024-03-22T04:42:02;22.92;;;13.35;;
9888;SDS011;4983;42.112;24.738;2024-03-22T04:44:28;23.58;;;13.95;;
9888;SDS011;4983;42.112;24.738;2024-03-22T04:46:54;28.13;;;13.20;;
9888;SDS011;4983;42.112;24.738;2024-03-22T04:49:19;29.17;;;16.25;;
9888;SDS011;4983;42.112;24.738;2024-03-22T04:51:45;24.50;;;13.95;;
9888;SDS011;4983;42.112;24.738;2024-03-22T04:54:10;25.67;;;14.43;;
9888;SDS011;4983;42.112;24.738;2024-03-22T04:56:36;23.75;;;14.05;;
9888;SDS011;4983;42.112;24.738;2024-03-22T04:59:01;26.75;;;14.52;;
9888;SDS011;4983;42.112;24.738;2024-03-22T05:01:27;30.60;;;16.25;;
9888;SDS011;4983;42.112;24.738;2024-03-22T05:03:52;22.15;;;14.27;;
9888;SDS011;4983;42.112;24.738;2024-03-22T05:06:17;21.58;;;12.35;;
9888;SDS011;4983;42.112;24.738;2024-03-22T05:08:43;25.25;;;13.23;;
9888;SDS011;4983;42.112;24.738;2024-03-22T05:11:09;23.02;;;12.38;;
9888;SDS011;4983;42.112;24.738;2024-03-22T05:13:34;28.33;;;14.32;;
9888;SDS011;4983;42.112;24.738;2024-03-22T05:16:00;33.63;;;16.08;;
9888;SDS011;4983;42.112;24.738;2024-03-22T05:18:25;44.88;;;17.60;;
9888;SDS011;4983;42.112;24.738;2024-03-22T05:20:51;29.70;;;15.25;;
9888;SDS011;4983;42.112;24.738;2024-03-22T05:23:17;23.35;;;13.65;;
9888;SDS011;4983;42.112;24.738;2024-03-22T05:25:43;28.63;;;12.07;;
9888;SDS011;4983;42.112;24.738;2024-03-22T05:28:08;22.23;;;10.93;;
9888;SDS011;4983;42.112;24.738;2024-03-22T05:30:34;20.25;;;10.55;;
9888;SDS011;4983;42.112;24.738;2024-03-22T05:32:59;24.27;;;9.75;;
9888;SDS011;4983;42.112;24.738;2024-03-22T05:35:25;16.63;;;10.40;;
9888;SDS011;4983;42.112;24.738;2024-03-22T05:37:52;21.08;;;10.90;;
9888;SDS011;4983;42.112;24.738;2024-03-22T05:40:17;18.30;;;11.27;;
9888;SDS011;4983;42.112;24.738;2024-03-22T05:42:43;20.80;;;10.43;;
9888;SDS011;4983;42.112;24.738;2024-03-22T05:45:08;18.60;;;10.75;;
9888;SDS011;4983;42.112;24.738;2024-03-22T05:47:34;21.92;;;12.30;;
9888;SDS011;4983;42.112;24.738;2024-03-22T05:50:00;25.40;;;13.02;;
9888;SDS011;4983;42.112;24.738;2024-03-22T05:52:26;20.45;;;12.90;;
9888;SDS011;4983;42.112;24.738;2024-03-22T05:54:52;21.42;;;12.00;;
9888;SDS011;4983;42.112;24.738;2024-03-22T05:57:18;28.15;;;14.13;;
9888;SDS011;4983;42.112;24.738;2024-03-22T05:59:43;25.27;;;12.35;;
9888;SDS011;4983;42.112;24.738;2024-03-22T06:02:09;24.10;;;14.27;;
9888;SDS011;4983;42.112;24.738;2024-03-22T06:04:34;21.52;;;13.73;;
9888;SDS011;4983;42.112;24.738;2024-03-22T06:07:01;22.70;;;13.52;;
9888;SDS011;4983;42.112;24.738;2024-03-22T06:09:29;21.65;;;13.45;;
9888;SDS011;4983;42.112;24.738;2024-03-22T06:12:10;29.10;;;14.27;;
9888;SDS011;4983;42.112;24.738;2024-03-22T06:14:42;26.55;;;14.38;;
9888;SDS011;4983;42.112;24.738;2024-03-22T06:17:11;22.55;;;13.45;;
9888;SDS011;4983;42.112;24.738;2024-03-22T06:19:37;25.90;;;13.23;;
9888;SDS011;4983;42.112;24.738;2024-03-22T06:22:03;22.02;;;12.43;;
9888;SDS011;4983;42.112;24.738;2024-03-22T06:24:29;25.85;;;13.90;;
9888;SDS011;4983;42.112;24.738;2024-03-22T06:26:54;21.95;;;10.82;;
9888;SDS011;4983;42.112;24.738;2024-03-22T06:29:20;21.17;;;10.88;;
9888;SDS011;4983;42.112;24.738;2024-03-22T06:31:46;18.52;;;10.52;;
9888;SDS011;4983;42.112;24.738;2024-03-22T06:34:12;19.35;;;10.82;;
9888;SDS011;4983;42.112;24.738;2024-03-22T06:36:37;27.50;;;11.52;;
9888;SDS011;4983;42.112;24.738;2024-03-22T06:39:03;35.75;;;12.77;;
9888;SDS011;4983;42.112;24.738;2024-03-22T06:41:33;20.40;;;11.50;;
9888;SDS011;4983;42.112;24.738;2024-03-22T06:43:59;29.95;;;14.13;;
9888;SDS011;4983;42.112;24.738;2024-03-22T06:46:25;26.20;;;12.05;;
9888;SDS011;4983;42.112;24.738;2024-03-22T06:48:50;16.98;;;9.52;;
9888;SDS011;4983;42.112;24.738;2024-03-22T06:51:17;20.20;;;11.32;;
9888;SDS011;4983;42.112;24.738;2024-03-22T06:53:42;17.10;;;11.27;;
9888;SDS011;4983;42.112;24.738;2024-03-22T06:56:07;16.42;;;10.52;;
9888;SDS011;4983;42.112;24.738;2024-03-22T06:58:36;20.17;;;10.15;;
9888;SDS011;4983;42.112;24.738;2024-03-22T07:01:02;14.20;;;10.98;;
9888;SDS011;4983;42.112;24.738;2024-03-22T07:03:29;23.40;;;9.98;;
9888;SDS011;4983;42.112;24.738;2024-03-22T07:05:55;49.42;;;12.68;;
9888;SDS011;4983;42.112;24.738;2024-03-22T07:08:20;18.15;;;9.48;;
9888;SDS011;4983;42.112;24.738;2024-03-22T07:10:46;13.82;;;8.77;;
9888;SDS011;4983;42.112;24.738;2024-03-22T07:13:11;25.08;;;10.32;;
9888;SDS011;4983;42.112;24.738;2024-03-22T07:15:36;24.08;;;9.35;;
9888;SDS011;4983;42.112;24.738;2024-03-22T07:18:02;17.27;;;9.95;;
9888;SDS011;4983;42.112;24.738;2024-03-22T07:20:28;22.35;;;10.52;;
9888;SDS011;4983;42.112;24.738;2024-03-22T07:22:53;15.80;;;7.88;;
9888;SDS011;4983;42.112;24.738;2024-03-22T07:25:19;20.33;;;9.45;;
9888;SDS011;4983;42.112;24.738;2024-03-22T07:27:44;18.83;;;8.95;;
9888;SDS011;4983;42.112;24.738;2024-03-22T07:30:11;10.45;;;8.52;;
9888;SDS011;4983;42.112;24.738;2024-03-22T07:32:37;16.23;;;8.70;;
9888;SDS011;4983;42.112;24.738;2024-03-22T07:35:02;20.85;;;8.30;;
9888;SDS011;4983;42.112;24.738;2024-03-22T07:37:28;14.05;;;7.22;;
9888;SDS011;4983;42.112;24.738;2024-03-22T07:39:54;9.82;;;7.20;;
9888;SDS011;4983;42.112;24.738;2024-03-22T07:42:19;14.77;;;8.07;;
9888;SDS011;4983;42.112;24.738;2024-03-22T07:44:46;11.75;;;8.23;;
9888;SDS011;4983;42.112;24.738;2024-03-22T07:47:11;19.25;;;8.13;;
9888;SDS011;4983;42.112;24.738;2024-03-22T07:49:37;15.75;;;8.50;;
9888;SDS011;4983;42.112;24.738;2024-03-22T07:52:03;14.48;;;8.70;;
9888;SDS011;4983;42.112;24.738;2024-03-22T07:54:29;37.90;;;10.55;;
9888;SDS011;4983;42.112;24.738;2024-03-22T07:56:54;24.92;;;7.82;;
9888;SDS011;4983;42.112;24.738;2024-03-22T07:59:20;11.18;;;7.32;;
9888;SDS011;4983;42.112;24.738;2024-03-22T08:01:45;11.27;;;6.85;;
9888;SDS011;4983;42.112;24.738;2024-03-22T08:04:12;11.20;;;7.50;;
9888;SDS011;4983;42.112;24.738;2024-03-22T08:06:37;11.02;;;7.97;;
9888;SDS011;4983;42.112;24.738;2024-03-22T08:09:03;11.00;;;7.32;;
9888;SDS011;4983;42.112;24.738;2024-03-22T08:11:28;11.80;;;7.40;;
9888;SDS011;4983;42.112;24.738;2024-03-22T08:13:53;10.82;;;8.35;;
9888;SDS011;4983;42.112;24.738;2024-03-22T08:16:26;8.85;;;6.68;;
9888;SDS011;4983;42.112;24.738;2024-03-22T08:18:52;17.70;;;8.20;;
9888;SDS011;4983;42.112;24.738;2024-03-22T08:21:18;18.95;;;8.15;;
9888;SDS011;4983;42.112;24.738;2024-03-22T08:23:43;15.13;;;7.28;;
9888;SDS011;4983;42.112;24.738;2024-03-22T08:26:08;11.27;;;6.78;;
9888;SDS011;4983;42.112;24.738;2024-03-22T08:28:34;8.35;;;6.75;;
9888;SDS011;4983;42.112;24.738;2024-03-22T08:31:03;18.90;;;7.40;;
9888;SDS011;4983;42.112;24.738;2024-03-22T08:33:29;8.20;;;7.30;;
9888;SDS011;4983;42.112;24.738;2024-03-22T08:35:54;15.15;;;7.32;;
9888;SDS011;4983;42.112;24.738;2024-03-22T08:38:20;19.13;;;7.53;;
9888;SDS011;4983;42.112;24.738;2024-03-22T08:40:45;12.57;;;6.68;;
9888;SDS011;4983;42.112;24.738;2024-03-22T08:43:11;10.25;;;7.35;;
9888;SDS011;4983;42.112;24.738;2024-03-22T08:45:36;9.15;;;6.28;;
9888;SDS011;4983;42.112;24.738;2024-03-22T08:48:02;32.53;;;8.85;;
9888;SDS011;4983;42.112;24.738;2024-03-22T08:50:27;19.73;;;7.13;;
9888;SDS011;4983;42.112;24.738;2024-03-22T08:52:53;6.13;;;4.90;;
9888;SDS011;4983;42.112;24.738;2024-03-22T08:55:18;13.50;;;5.82;;
9888;SDS011;4983;42.112;24.738;2024-03-22T08:57:44;13.02;;;5.68;;
9888;SDS011;4983;42.112;24.738;2024-03-22T09:00:09;11.55;;;6.50;;
9888;SDS011;4983;42.112;24.738;2024-03-22T09:02:36;6.13;;;5.15;;
9888;SDS011;4983;42.112;24.738;2024-03-22T09:05:03;8.95;;;5.55;;
9888;SDS011;4983;42.112;24.738;2024-03-22T09:07:29;9.93;;;6.30;;
9888;SDS011;4983;42.112;24.738;2024-03-22T09:09:54;11.65;;;4.75;;
9888;SDS011;4983;42.112;24.738;2024-03-22T09:12:20;9.68;;;4.82;;
9888;SDS011;4983;42.112;24.738;2024-03-22T09:14:45;7.65;;;5.78;;
9888;SDS011;4983;42.112;24.738;2024-03-22T09:17:11;8.43;;;5.53;;
9888;SDS011;4983;42.112;24.738;2024-03-22T09:19:36;14.25;;;5.43;;
9888;SDS011;4983;42.112;24.738;2024-03-22T09:22:02;7.03;;;5.00;;
9888;SDS011;4983;42.112;24.738;2024-03-22T09:24:28;21.00;;;5.80;;
9888;SDS011;4983;42.112;24.738;2024-03-22T09:26:53;18.05;;;5.82;;
9888;SDS011;4983;42.112;24.738;2024-03-22T09:29:19;8.60;;;4.40;;
9888;SDS011;4983;42.112;24.738;2024-03-22T09:31:44;17.63;;;4.97;;
9888;SDS011;4983;42.112;24.738;2024-03-22T09:34:11;5.90;;;3.78;;
9888;SDS011;4983;42.112;24.738;2024-03-22T09:36:37;4.65;;;3.45;;
9888;SDS011;4983;42.112;24.738;2024-03-22T09:39:03;8.95;;;3.95;;
9888;SDS011;4983;42.112;24.738;2024-03-22T09:41:29;4.65;;;3.15;;
9888;SDS011;4983;42.112;24.738;2024-03-22T09:43:58;3.75;;;3.40;;
9888;SDS011;4983;42.112;24.738;2024-03-22T09:46:26;8.82;;;4.85;;
9888;SDS011;4983;42.112;24.738;2024-03-22T09:48:52;12.55;;;4.50;;
9888;SDS011;4983;42.112;24.738;2024-03-22T09:51:19;16.63;;;4.63;;
9888;SDS011;4983;42.112;24.738;2024-03-22T09:53:46;8.75;;;4.38;;
9888;SDS011;4983;42.112;24.738;2024-03-22T09:56:14;5.93;;;4.22;;
9888;SDS011;4983;42.112;24.738;2024-03-22T09:58:43;6.03;;;3.90;;
9888;SDS011;4983;42.112;24.738;2024-03-22T10:01:09;7.03;;;4.22;;
9888;SDS011;4983;42.112;24.738;2024-03-22T10:03:37;6.63;;;4.32;;
9888;SDS011;4983;42.112;24.738;2024-03-22T10:06:02;6.70;;;4.25;;
9888;SDS011;4983;42.112;24.738;2024-03-22T10:08:28;5.88;;;3.35;;
9888;SDS011;4983;42.112;24.738;2024-03-22T10:10:55;14.48;;;3.47;;
9888;SDS011;4983;42.112;24.738;2024-03-22T10:13:20;3.45;;;3.15;;
9888;SDS011;4983;42.112;24.738;2024-03-22T10:15:46;10.75;;;4.10;;
9888;SDS011;4983;42.112;24.738;2024-03-22T10:18:12;5.38;;;3.47;;
9888;SDS011;4983;42.112;24.738;2024-03-22T10:20:39;4.75;;;3.05;;
9888;SDS011;4983;42.112;24.738;2024-03-22T10:23:05;15.60;;;3.90;;
9888;SDS011;4983;42.112;24.738;2024-03-22T10:25:33;6.15;;;2.80;;
9888;SDS011;4983;42.112;24.738;2024-03-22T10:27:59;5.85;;;3.70;;
9888;SDS011;4983;42.112;24.738;2024-03-22T10:30:25;9.88;;;4.80;;
9888;SDS011;4983;42.112;24.738;2024-03-22T10:32:51;17.08;;;4.45;;
9888;SDS011;4983;42.112;24.738;2024-03-22T10:35:17;4.13;;;3.03;;
9888;SDS011;4983;42.112;24.738;2024-03-22T10:37:43;6.40;;;3.33;;
9888;SDS011;4983;42.112;24.738;2024-03-22T10:40:09;5.45;;;2.92;;
9888;SDS011;4983;42.112;24.738;2024-03-22T10:42:36;4.55;;;3.25;;
9888;SDS011;4983;42.112;24.738;2024-03-22T10:45:03;3.95;;;3.58;;
9888;SDS011;4983;42.112;24.738;2024-03-22T10:47:30;3.97;;;3.58;;
9888;SDS011;4983;42.112;24.738;2024-03-22T10:52:33;10.15;;;4.70;;
9888;SDS011;4983;42.112;24.738;2024-03-22T10:55:04;5.18;;;3.67;;
9888;SDS011;4983;42.112;24.738;2024-03-22T10:57:32;5.40;;;4.38;;
9888;SDS011;4983;42.112;24.738;2024-03-22T11:00:03;6.68;;;4.28;;
9888;SDS011;4983;42.112;24.738;2024-03-22T11:02:38;2.70;;;2.30;;
9888;SDS011;4983;42.112;24.738;2024-03-22T11:05:04;11.40;;;2.83;;
9888;SDS011;4983;42.112;24.738;2024-03-22T11:07:30;32.90;;;5.25;;
9888;SDS011;4983;42.112;24.738;2024-03-22T11:09:56;5.55;;;3.03;;
9888;SDS011;4983;42.112;24.738;2024-03-22T11:12:24;4.38;;;3.33;;
9888;SDS011;4983;42.112;24.738;2024-03-22T11:14:50;6.10;;;2.85;;
9888;SDS011;4983;42.112;24.738;2024-03-22T11:17:18;4.72;;;3.53;;
9888;SDS011;4983;42.112;24.738;2024-03-22T11:19:43;3.90;;;3.25;;
9888;SDS011;4983;42.112;24.738;2024-03-22T11:22:09;4.25;;;2.72;;
9888;SDS011;4983;42.112;24.738;2024-03-22T11:24:39;8.05;;;3.38;;
9888;SDS011;4983;42.112;24.738;2024-03-22T11:27:05;7.15;;;2.60;;
9888;SDS011;4983;42.112;24.738;2024-03-22T11:29:30;8.50;;;3.92;;
9888;SDS011;4983;42.112;24.738;2024-03-22T11:31:56;4.60;;;4.03;;
9888;SDS011;4983;42.112;24.738;2024-03-22T11:34:21;7.50;;;3.45;;
9888;SDS011;4983;42.112;24.738;2024-03-22T11:36:47;4.78;;;2.67;;
9888;SDS011;4983;42.112;24.738;2024-03-22T11:39:14;10.57;;;4.10;;
9888;SDS011;4983;42.112;24.738;2024-03-22T11:41:40;4.38;;;2.72;;
9888;SDS011;4983;42.112;24.738;2024-03-22T11:44:06;2.22;;;2.03;;
9888;SDS011;4983;42.112;24.738;2024-03-22T11:46:31;5.25;;;2.30;;
9888;SDS011;4983;42.112;24.738;2024-03-22T11:48:58;4.70;;;2.30;;
9888;SDS011;4983;42.112;24.738;2024-03-22T11:51:24;3.20;;;2.58;;
9888;SDS011;4983;42.112;24.738;2024-03-22T11:53:52;13.48;;;3.83;;
9888;SDS011;4983;42.112;24.738;2024-03-22T11:56:20;2.80;;;2.20;;
9888;SDS011;4983;42.112;24.738;2024-03-22T11:58:47;16.95;;;3.15;;
9888;SDS011;4983;42.112;24.738;2024-03-22T12:01:14;7.40;;;2.53;;
9888;SDS011;4983;42.112;24.738;2024-03-22T12:03:42;17.13;;;3.85;;
9888;SDS011;4983;42.112;24.738;2024-03-22T12:06:09;2.38;;;2.17;;
9888;SDS011;4983;42.112;24.738;2024-03-22T12:08:35;4.18;;;2.47;;
9888;SDS011;4983;42.112;24.738;2024-03-22T12:11:03;8.70;;;4.07;;
9888;SDS011;4983;42.112;24.738;2024-03-22T12:13:29;6.90;;;2.80;;
9888;SDS011;4983;42.112;24.738;2024-03-22T12:15:54;8.07;;;3.20;;
9888;SDS011;4983;42.112;24.738;2024-03-22T12:18:20;8.60;;;4.80;;
9888;SDS011;4983;42.112;24.738;2024-03-22T12:20:45;7.50;;;3.13;;
9888;SDS011;4983;42.112;24.738;2024-03-22T12:23:11;10.02;;;4.20;;
9888;SDS011;4983;42.112;24.738;2024-03-22T12:25:36;6.05;;;3.50;;
9888;SDS011;4983;42.112;24.738;2024-03-22T12:28:01;36.00;;;7.57;;
9888;SDS011;4983;42.112;24.738;2024-03-22T12:30:27;6.85;;;3.95;;
9888;SDS011;4983;42.112;24.738;2024-03-22T12:32:52;6.43;;;2.35;;
9888;SDS011;4983;42.112;24.738;2024-03-22T12:35:18;2.75;;;2.53;;
9888;SDS011;4983;42.112;24.738;2024-03-22T12:37:43;5.43;;;2.28;;
9888;SDS011;4983;42.112;24.738;2024-03-22T12:40:09;2.55;;;2.22;;
9888;SDS011;4983;42.112;24.738;2024-03-22T12:42:35;3.55;;;2.65;;
9888;SDS011;4983;42.112;24.738;2024-03-22T12:45:00;65.07;;;7.25;;
9888;SDS011;4983;42.112;24.738;2024-03-22T12:47:26;3.42;;;2.83;;
9888;SDS011;4983;42.112;24.738;2024-03-22T12:49:51;11.05;;;3.25;;
9888;SDS011;4983;42.112;24.738;2024-03-22T12:52:17;5.20;;;2.40;;
9888;SDS011;4983;42.112;24.738;2024-03-22T12:54:42;4.85;;;2.38;;
9888;SDS011;4983;42.112;24.738;2024-03-22T12:57:08;19.00;;;3.38;;
9888;SDS011;4983;42.112;24.738;2024-03-22T12:59:35;23.00;;;4.35;;
9888;SDS011;4983;42.112;24.738;2024-03-22T13:02:00;9.43;;;2.60;;
9888;SDS011;4983;42.112;24.738;2024-03-22T13:04:26;10.82;;;3.90;;
9888;SDS011;4983;42.112;24.738;2024-03-22T13:06:52;7.35;;;2.80;;
9888;SDS011;4983;42.112;24.738;2024-03-22T13:09:18;3.25;;;2.00;;
9888;SDS011;4983;42.112;24.738;2024-03-22T13:11:46;3.05;;;2.65;;
9888;SDS011;4983;42.112;24.738;2024-03-22T13:14:13;30.73;;;3.78;;
9888;SDS011;4983;42.112;24.738;2024-03-22T13:16:39;7.15;;;2.72;;
9888;SDS011;4983;42.112;24.738;2024-03-22T13:19:05;7.00;;;2.13;;
9888;SDS011;4983;42.112;24.738;2024-03-22T13:21:33;19.67;;;3.65;;
9888;SDS011;4983;42.112;24.738;2024-03-22T13:23:59;4.25;;;2.15;;
9888;SDS011;4983;42.112;24.738;2024-03-22T13:26:24;10.20;;;3.35;;
9888;SDS011;4983;42.112;24.738;2024-03-22T13:28:50;2.15;;;1.95;;
9888;SDS011;4983;42.112;24.738;2024-03-22T13:31:16;6.88;;;2.63;;
9888;SDS011;4983;42.112;24.738;2024-03-22T13:33:42;2.33;;;1.75;;
9888;SDS011;4983;42.112;24.738;2024-03-22T13:36:07;3.65;;;2.30;;
9888;SDS011;4983;42.112;24.738;2024-03-22T13:38:33;25.65;;;3.17;;
9888;SDS011;4983;42.112;24.738;2024-03-22T13:40:59;3.10;;;2.80;;
9888;SDS011;4983;42.112;24.738;2024-03-22T13:43:26;2.70;;;2.45;;
9888;SDS011;4983;42.112;24.738;2024-03-22T13:45:52;3.30;;;2.47;;
9888;SDS011;4983;42.112;24.738;2024-03-22T13:48:19;3.92;;;2.25;;
9888;SDS011;4983;42.112;24.738;2024-03-22T13:50:49;14.60;;;3.10;;
9888;SDS011;4983;42.112;24.738;2024-03-22T13:53:14;2.95;;;1.75;;
9888;SDS011;4983;42.112;24.738;2024-03-22T13:55:40;2.78;;;2.08;;
9888;SDS011;4983;42.112;24.738;2024-03-22T13:58:07;10.30;;;2.15;;
9888;SDS011;4983;42.112;24.738;2024-03-22T14:00:33;4.70;;;1.92;;
9888;SDS011;4983;42.112;24.738;2024-03-22T14:02:59;6.75;;;2.10;;
9888;SDS011;4983;42.112;24.738;2024-03-22T14:05:24;2.22;;;1.75;;
9888;SDS011;4983;42.112;24.738;2024-03-22T14:07:50;5.00;;;1.83;;
9888;SDS011;4983;42.112;24.738;2024-03-22T14:10:16;10.63;;;3.13;;
9888;SDS011;4983;42.112;24.738;2024-03-22T14:12:42;11.15;;;3.85;;
9888;SDS011;4983;42.112;24.738;2024-03-22T14:15:08;2.05;;;1.77;;
9888;SDS011;4983;42.112;24.738;2024-03-22T14:17:33;30.50;;;3.28;;
9888;SDS011;4983;42.112;24.738;2024-03-22T14:19:59;14.50;;;2.83;;
9888;SDS011;4983;42.112;24.738;2024-03-22T14:22:24;7.35;;;2.25;;
9888;SDS011;4983;42.112;24.738;2024-03-22T14:24:50;2.47;;;2.05;;
9888;SDS011;4983;42.112;24.738;2024-03-22T14:27:15;5.53;;;2.03;;
9888;SDS011;4983;42.112;24.738;2024-03-22T14:29:41;4.38;;;2.60;;
9888;SDS011;4983;42.112;24.738;2024-03-22T14:32:06;2.30;;;1.65;;
9888;SDS011;4983;42.112;24.738;2024-03-22T14:34:32;4.70;;;1.83;;
9888;SDS011;4983;42.112;24.738;2024-03-22T14:36:58;35.17;;;4.18;;
9888;SDS011;4983;42.112;24.738;2024-03-22T14:39:23;41.63;;;6.22;;
9888;SDS011;4983;42.112;24.738;2024-03-22T14:41:49;6.50;;;4.57;;